Dominia — ICFW — position and weather

sailwx.info

Track history (hours):
 
Tides and Currents Weather Stations Pressure Air Temp Water Temp Dewpoint Dewpoint Depression Visibility Wind Speed Wind Dir Waves Ship Positions

Dominia

Last reported at 2016-Dec-07 09:30 UTC. Time now 2016-Dec-10 18:42 UTC.
Position N 37°05' E 013°40'.

Length 176 m; draft 9.7 m.

Type: Tanker. MMSI: 247273400.

Date/timePositionNaut miles runAvg speedWind from/ knotsBaromVisibWave heightAir tempDewpointWater temp
2016-Dec-07 09:30N 37°05' E 013°40'1212.5
2016-Dec-07 08:33N 36°59' E 013°53'1312.7
2016-Dec-07 07:33N 36°52' E 014°07'1312.6
2016-Dec-07 06:33N 36°46' E 014°20'1212.2
2016-Dec-07 05:33N 36°41' E 014°34'1212.3
2016-Dec-07 04:33N 36°37' E 014°49'1211.9
2016-Dec-07 03:33N 36°35' E 015°03'  
2016-Dec-02 12:27N 37°18' E 015°25'1312.7
2016-Dec-02 11:25N 37°27' E 015°37'1212.1
2016-Dec-02 10:24N 37°36' E 015°48'1112.6
2016-Dec-02 09:33N 37°43' E 015°58'414 9.9
2016-Nov-30 15:33N 44°17' E 013°10'1313.0
2016-Nov-30 14:33N 44°30' E 013°05'1313.0
2016-Nov-30 13:32N 44°42' E 012°59'1313.1
2016-Nov-30 12:33N 44°54' E 012°51'1313.2
2016-Nov-30 11:33N 45°06' E 012°43'1212.2
2016-Nov-30 10:33N 45°14' E 012°31'1211.5
2016-Nov-30 09:33N 45°21' E 012°17'6 6.1
2016-Nov-30 08:33N 45°26' E 012°14'1 0.7
2016-Nov-30 07:33N 45°26' E 012°13'0 0.0
2016-Nov-30 06:33N 45°26' E 012°13'0 0.0
2016-Nov-30 05:33N 45°26' E 012°13'0 0.0
2016-Nov-30 04:33N 45°26' E 012°13'0 0.0
2016-Nov-30 03:30N 45°26' E 012°13'0 0.0
2016-Nov-30 02:33N 45°26' E 012°13'0 0.0
2016-Nov-30 01:21N 45°26' E 012°13'0 0.0
2016-Nov-30 00:30N 45°26' E 012°13'0 0.0
2016-Nov-29 23:33N 45°26' E 012°13'0 0.0
2016-Nov-29 22:33N 45°26' E 012°13'0 0.0
2016-Nov-29 21:33N 45°26' E 012°13'0 0.0
2016-Nov-29 20:30N 45°26' E 012°13'0 0.0
2016-Nov-29 19:33N 45°26' E 012°13'0 0.0
2016-Nov-29 18:33N 45°26' E 012°13'0 0.0
2016-Nov-29 17:33N 45°26' E 012°13'0 0.0
2016-Nov-29 16:33N 45°26' E 012°13'0 0.0
2016-Nov-29 15:33N 45°26' E 012°13'0 0.0
2016-Nov-29 13:33N 45°26' E 012°13'0 0.0
2016-Nov-29 06:18N 45°26' E 012°13'0 0.0
2016-Nov-29 05:06N 45°26' E 012°13'0 0.0
2016-Nov-29 04:18N 45°26' E 012°13'0 0.0
2016-Nov-29 03:30N 45°26' E 012°13'0 0.0
2016-Nov-29 02:21N 45°26' E 012°13'0 0.0
2016-Nov-29 01:27N 45°26' E 012°13'0 0.0
2016-Nov-29 00:27N 45°26' E 012°13'0 0.0
2016-Nov-28 23:33N 45°26' E 012°13'0 0.0
2016-Nov-28 22:21N 45°26' E 012°13'0 0.0
2016-Nov-28 21:33N 45°26' E 012°13'0 0.0
2016-Nov-28 20:21N 45°26' E 012°13'0 0.0
2016-Nov-28 19:27N 45°26' E 012°13'0 0.0
2016-Nov-28 18:27N 45°26' E 012°13'0 0.0
2016-Nov-28 17:27N 45°26' E 012°13'0 0.0
2016-Nov-28 16:27N 45°26' E 012°13'0 0.0
2016-Nov-28 15:33N 45°26' E 012°13'0 0.0
2016-Nov-28 14:33N 45°26' E 012°13'0 0.0
2016-Nov-28 13:18N 45°26' E 012°13'0 0.0
2016-Nov-28 12:33N 45°26' E 012°13'0 0.0
2016-Nov-28 11:33N 45°26' E 012°13'0 0.0
2016-Nov-28 10:30N 45°26' E 012°13'0 0.0
2016-Nov-28 09:33N 45°26' E 012°13'0 0.0
2016-Nov-28 08:33N 45°26' E 012°13'1 0.6
2016-Nov-28 07:33N 45°26' E 012°14'6 5.8
2016-Nov-28 06:33N 45°21' E 012°16'8 7.9
2016-Nov-28 05:33N 45°19' E 012°27'0 0.1
2016-Nov-28 04:32N 45°19' E 012°27'0 0.0
2016-Nov-28 03:32N 45°19' E 012°27'0 0.0
2016-Nov-28 02:32N 45°19' E 012°27'0 0.0
2016-Nov-28 01:32N 45°19' E 012°27'0 0.0
2016-Nov-28 00:32N 45°19' E 012°27'0 0.0
2016-Nov-27 23:32N 45°19' E 012°27'0 0.0
2016-Nov-27 22:26N 45°19' E 012°27'0 0.0
2016-Nov-27 21:32N 45°19' E 012°27'0 0.0
2016-Nov-27 20:32N 45°19' E 012°27'0 0.0
2016-Nov-27 19:32N 45°19' E 012°27'0 0.0
2016-Nov-27 18:32N 45°19' E 012°27'0 0.0
2016-Nov-27 17:32N 45°19' E 012°27'0 0.0
2016-Nov-27 16:32N 45°19' E 012°27'0 0.0
2016-Nov-27 15:32N 45°19' E 012°27'0 0.0
2016-Nov-27 14:32N 45°19' E 012°27'0 0.0
2016-Nov-27 13:32N 45°19' E 012°27'0 0.0
2016-Nov-27 12:32N 45°19' E 012°27'0 0.0
2016-Nov-27 11:32N 45°19' E 012°27'1 0.6
2016-Nov-27 10:34N 45°19' E 012°28'1010.0
2016-Nov-27 09:33N 45°14' E 012°40'  
Track history (hours):
 
Tides and Currents Weather Stations Pressure Air Temp Water Temp Dewpoint Dewpoint Depression Visibility Wind Speed Wind Dir Waves Ship Positions

Dominia

Last reported at 2016-Dec-07 09:30 UTC. Time now 2016-Dec-10 18:42 UTC.
Position N 37°05' E 013°40'.

Length 176 m; draft 9.7 m.

Type: Tanker. MMSI: 247273400.

Date/timePositionNaut miles runAvg speedWind from/ knotsBaromVisibWave heightAir tempDewpointWater temp
2016-Dec-07 09:30N 37°05' E 013°40'1212.5
2016-Dec-07 08:33N 36°59' E 013°53'1312.7
2016-Dec-07 07:33N 36°52' E 014°07'1312.6
2016-Dec-07 06:33N 36°46' E 014°20'1212.2
2016-Dec-07 05:33N 36°41' E 014°34'1212.3
2016-Dec-07 04:33N 36°37' E 014°49'1211.9
2016-Dec-07 03:33N 36°35' E 015°03'  
2016-Dec-02 12:27N 37°18' E 015°25'1312.7
2016-Dec-02 11:25N 37°27' E 015°37'1212.1
2016-Dec-02 10:24N 37°36' E 015°48'1112.6
2016-Dec-02 09:33N 37°43' E 015°58'414 9.9
2016-Nov-30 15:33N 44°17' E 013°10'1313.0
2016-Nov-30 14:33N 44°30' E 013°05'1313.0
2016-Nov-30 13:32N 44°42' E 012°59'1313.1
2016-Nov-30 12:33N 44°54' E 012°51'1313.2
2016-Nov-30 11:33N 45°06' E 012°43'1212.2
2016-Nov-30 10:33N 45°14' E 012°31'1211.5
2016-Nov-30 09:33N 45°21' E 012°17'6 6.1
2016-Nov-30 08:33N 45°26' E 012°14'1 0.7
2016-Nov-30 07:33N 45°26' E 012°13'0 0.0
2016-Nov-30 06:33N 45°26' E 012°13'0 0.0
2016-Nov-30 05:33N 45°26' E 012°13'0 0.0
2016-Nov-30 04:33N 45°26' E 012°13'0 0.0
2016-Nov-30 03:30N 45°26' E 012°13'0 0.0
2016-Nov-30 02:33N 45°26' E 012°13'0 0.0
2016-Nov-30 01:21N 45°26' E 012°13'0 0.0
2016-Nov-30 00:30N 45°26' E 012°13'0 0.0
2016-Nov-29 23:33N 45°26' E 012°13'0 0.0
2016-Nov-29 22:33N 45°26' E 012°13'0 0.0
2016-Nov-29 21:33N 45°26' E 012°13'0 0.0
2016-Nov-29 20:30N 45°26' E 012°13'0 0.0
2016-Nov-29 19:33N 45°26' E 012°13'0 0.0
2016-Nov-29 18:33N 45°26' E 012°13'0 0.0
2016-Nov-29 17:33N 45°26' E 012°13'0 0.0
2016-Nov-29 16:33N 45°26' E 012°13'0 0.0
2016-Nov-29 15:33N 45°26' E 012°13'0 0.0
2016-Nov-29 13:33N 45°26' E 012°13'0 0.0
2016-Nov-29 06:18N 45°26' E 012°13'0 0.0
2016-Nov-29 05:06N 45°26' E 012°13'0 0.0
2016-Nov-29 04:18N 45°26' E 012°13'0 0.0
2016-Nov-29 03:30N 45°26' E 012°13'0 0.0
2016-Nov-29 02:21N 45°26' E 012°13'0 0.0
2016-Nov-29 01:27N 45°26' E 012°13'0 0.0
2016-Nov-29 00:27N 45°26' E 012°13'0 0.0
2016-Nov-28 23:33N 45°26' E 012°13'0 0.0
2016-Nov-28 22:21N 45°26' E 012°13'0 0.0
2016-Nov-28 21:33N 45°26' E 012°13'0 0.0
2016-Nov-28 20:21N 45°26' E 012°13'0 0.0
2016-Nov-28 19:27N 45°26' E 012°13'0 0.0
2016-Nov-28 18:27N 45°26' E 012°13'0 0.0
2016-Nov-28 17:27N 45°26' E 012°13'0 0.0
2016-Nov-28 16:27N 45°26' E 012°13'0 0.0
2016-Nov-28 15:33N 45°26' E 012°13'0 0.0
2016-Nov-28 14:33N 45°26' E 012°13'0 0.0
2016-Nov-28 13:18N 45°26' E 012°13'0 0.0
2016-Nov-28 12:33N 45°26' E 012°13'0 0.0
2016-Nov-28 11:33N 45°26' E 012°13'0 0.0
2016-Nov-28 10:30N 45°26' E 012°13'0 0.0
2016-Nov-28 09:33N 45°26' E 012°13'0 0.0
2016-Nov-28 08:33N 45°26' E 012°13'1 0.6
2016-Nov-28 07:33N 45°26' E 012°14'6 5.8
2016-Nov-28 06:33N 45°21' E 012°16'8 7.9
2016-Nov-28 05:33N 45°19' E 012°27'0 0.1
2016-Nov-28 04:32N 45°19' E 012°27'0 0.0
2016-Nov-28 03:32N 45°19' E 012°27'0 0.0
2016-Nov-28 02:32N 45°19' E 012°27'0 0.0
2016-Nov-28 01:32N 45°19' E 012°27'0 0.0
2016-Nov-28 00:32N 45°19' E 012°27'0 0.0
2016-Nov-27 23:32N 45°19' E 012°27'0 0.0
2016-Nov-27 22:26N 45°19' E 012°27'0 0.0
2016-Nov-27 21:32N 45°19' E 012°27'0 0.0
2016-Nov-27 20:32N 45°19' E 012°27'0 0.0
2016-Nov-27 19:32N 45°19' E 012°27'0 0.0
2016-Nov-27 18:32N 45°19' E 012°27'0 0.0
2016-Nov-27 17:32N 45°19' E 012°27'0 0.0
2016-Nov-27 16:32N 45°19' E 012°27'0 0.0
2016-Nov-27 15:32N 45°19' E 012°27'0 0.0
2016-Nov-27 14:32N 45°19' E 012°27'0 0.0
2016-Nov-27 13:32N 45°19' E 012°27'0 0.0
2016-Nov-27 12:32N 45°19' E 012°27'0 0.0
2016-Nov-27 11:32N 45°19' E 012°27'1 0.6
2016-Nov-27 10:34N 45°19' E 012°28'1010.0
2016-Nov-27 09:33N 45°14' E 012°40'  

Dump ship's entire track history